Time;durP1;ratioP1;P1;durP2;ratioP2;P2;SDS_P1;SDS_P2;PMS_P1;PMS_P2;Temp;Humidity;BMP_temperature;BMP_pressure;BME280_temperature;BME280_humidity;BME280_pressure;Samples;Min_cycle;Max_cycle;Signal;HPM_P1;HPM_P2
2022/06/07 00:00:28;;;;;;;16.98;10.20;;;14.70;88.80;;;;;;5094586;28;20044;-70
2022/06/07 00:02:53;;;;;;;19.48;10.32;;;14.70;88.80;;;;;;5094542;28;20070;-70
2022/06/07 00:05:19;;;;;;;17.45;9.63;;;14.70;89.00;;;;;;5094599;28;20452;-70
2022/06/07 00:07:44;;;;;;;20.88;10.82;;;14.70;89.00;;;;;;5094464;28;20032;-70
2022/06/07 00:10:11;;;;;;;18.55;10.30;;;14.70;90.00;;;;;;5094510;28;20058;-70
2022/06/07 00:12:36;;;;;;;18.67;10.30;;;14.60;89.60;;;;;;5094502;28;20118;-70
2022/06/07 00:15:03;;;;;;;22.00;10.95;;;14.60;89.70;;;;;;5094240;28;20053;-70
2022/06/07 00:17:28;;;;;;;22.95;10.70;;;14.60;89.80;;;;;;5094253;28;20056;-70
2022/06/07 00:19:54;;;;;;;23.27;10.95;;;14.60;89.80;;;;;;5093350;28;20047;-70
2022/06/07 00:22:20;;;;;;;19.25;11.20;;;14.50;89.90;;;;;;5094210;28;20033;-70
2022/06/07 00:24:45;;;;;;;21.13;11.18;;;14.50;90.00;;;;;;5094193;28;20029;-70
2022/06/07 00:27:12;;;;;;;20.60;11.27;;;14.50;90.00;;;;;;5094094;28;20032;-70
2022/06/07 00:29:39;;;;;;;19.73;11.68;;;14.50;90.00;;;;;;5094051;28;20031;-71
2022/06/07 00:32:05;;;;;;;19.65;11.98;;;14.50;90.00;;;;;;5093120;28;20107;-70
2022/06/07 00:34:31;;;;;;;24.88;13.13;;;14.50;90.00;;;;;;5093953;28;20079;-70
2022/06/07 00:36:57;;;;;;;22.67;12.52;;;14.50;90.00;;;;;;5093135;28;20055;-70
2022/06/07 00:39:23;;;;;;;24.70;12.45;;;14.50;90.00;;;;;;5093956;28;20021;-70
2022/06/07 00:41:49;;;;;;;23.33;12.25;;;14.50;90.00;;;;;;5093883;28;20028;-70
2022/06/07 00:44:21;;;;;;;24.75;12.57;;;14.50;89.90;;;;;;5093899;28;20025;-70
2022/06/07 00:46:48;;;;;;;20.23;11.90;;;14.60;89.90;;;;;;5093857;28;20021;-70
2022/06/07 00:49:18;;;;;;;22.38;12.32;;;14.60;89.70;;;;;;5093828;28;20051;-70
2022/06/07 00:51:45;;;;;;;22.88;12.68;;;14.60;89.90;;;;;;5093786;28;20376;-70
2022/06/07 00:54:17;;;;;;;25.75;13.35;;;14.50;89.90;;;;;;5092606;28;20025;-70
2022/06/07 00:56:43;;;;;;;;;;;14.60;89.60;;;;;;5093778;28;20025;-70
2022/06/07 00:59:08;;;;;;;26.63;13.55;;;14.60;89.80;;;;;;5054780;28;1088866;-70
2022/06/07 01:01:34;;;;;;;24.48;13.88;;;14.50;90.00;;;;;;5094426;28;20033;-70
2022/06/07 01:03:59;;;;;;;25.02;14.63;;;14.50;90.00;;;;;;5094341;28;20017;-71
2022/06/07 01:11:53;;;;;;;28.88;14.60;;;14.60;89.90;;;;;;5094355;28;20059;-70
2022/06/07 01:14:19;;;;;;;26.70;15.13;;;14.60;89.90;;;;;;5094085;28;20116;-70
2022/06/07 01:16:44;;;;;;;27.92;15.30;;;14.60;89.70;;;;;;5094128;28;20024;-71
2022/06/07 01:19:10;;;;;;;25.65;14.60;;;14.70;88.40;;;;;;5094103;28;20029;-70
2022/06/07 01:21:38;;;;;;;29.35;15.23;;;14.70;89.00;;;;;;5094078;28;20044;-70
2022/06/07 01:24:04;;;;;;;26.48;14.68;;;14.70;88.90;;;;;;5094012;28;20063;-71
2022/06/07 01:26:31;;;;;;;25.55;14.48;;;14.70;88.90;;;;;;5093983;28;20029;-70
2022/06/07 01:28:57;;;;;;;27.73;15.57;;;14.70;88.90;;;;;;5093892;28;20027;-70
2022/06/07 01:31:22;;;;;;;26.95;15.05;;;14.70;88.50;;;;;;5093878;28;20080;-70
2022/06/07 01:33:48;;;;;;;25.02;14.57;;;14.60;88.80;;;;;;5093868;28;20017;-70
2022/06/07 01:36:16;;;;;;;26.50;14.35;;;14.70;88.90;;;;;;5093715;28;20052;-70
2022/06/07 01:38:43;;;;;;;27.20;14.65;;;14.70;88.90;;;;;;5093770;28;20027;-70
2022/06/07 01:43:54;;;;;;;26.48;14.32;;;14.70;88.70;;;;;;5093924;28;20105;-70
2022/06/07 01:46:20;;;;;;;28.65;14.38;;;14.70;88.60;;;;;;5093650;28;20028;-70
2022/06/07 01:48:48;;;;;;;26.70;13.57;;;14.70;88.40;;;;;;5093627;28;20108;-70
2022/06/07 01:51:15;;;;;;;27.05;14.48;;;14.80;88.20;;;;;;5093577;28;20043;-70
2022/06/07 01:53:40;;;;;;;25.55;14.35;;;14.80;88.10;;;;;;5093532;28;20033;-70
2022/06/07 01:56:17;;;;;;;23.83;13.55;;;14.80;87.90;;;;;;5093448;28;20138;-71
2022/06/07 01:58:44;;;;;;;26.38;13.82;;;14.80;87.50;;;;;;5093282;28;20056;-70
2022/06/07 02:01:11;;;;;;;23.55;13.80;;;14.80;87.60;;;;;;5093310;28;20028;-70
2022/06/07 02:03:38;;;;;;;26.17;14.43;;;14.80;88.50;;;;;;5093452;28;20025;-70
2022/06/07 02:06:08;;;;;;;21.45;13.98;;;14.70;87.90;;;;;;5093394;28;20033;-70
2022/06/07 02:08:37;;;;;;;21.88;12.48;;;14.60;87.90;;;;;;5093298;28;20099;-70
2022/06/07 02:11:08;;;;;;;25.08;13.10;;;14.60;88.10;;;;;;5093351;28;20029;-70
2022/06/07 02:13:34;;;;;;;21.95;13.25;;;14.60;87.80;;;;;;5093257;28;20035;-70
2022/06/07 02:16:00;;;;;;;20.15;12.52;;;14.60;88.10;;;;;;5093215;28;20032;-71
2022/06/07 02:18:26;;;;;;;25.10;12.80;;;14.50;88.10;;;;;;5093222;28;20051;-70
2022/06/07 02:20:54;;;;;;;21.50;12.10;;;14.50;88.20;;;;;;5093213;28;20012;-70
2022/06/07 02:23:19;;;;;;;24.17;12.75;;;14.50;88.10;;;;;;5093216;28;20028;-70
2022/06/07 02:25:50;;;;;;;18.92;12.07;;;14.50;88.00;;;;;;5092237;28;20029;-70
2022/06/07 02:28:18;;;;;;;20.17;11.73;;;14.50;87.90;;;;;;5093238;28;20084;-70
2022/06/07 02:30:45;;;;;;;20.92;11.88;;;14.50;87.90;;;;;;5093160;28;20040;-70
2022/06/07 02:33:12;;;;;;;19.15;11.48;;;14.50;88.00;;;;;;5093122;28;20035;-70
2022/06/07 02:35:41;;;;;;;17.30;11.55;;;14.50;88.30;;;;;;5093035;28;20029;-70
2022/06/07 02:38:07;;;;;;;22.58;10.80;;;14.50;87.60;;;;;;5093197;28;20013;-70
2022/06/07 02:40:34;;;;;;;20.17;11.27;;;14.50;87.60;;;;;;5093052;28;20035;-70
2022/06/07 02:43:01;;;;;;;15.88;10.88;;;14.50;87.40;;;;;;5092994;28;20052;-70
2022/06/07 02:45:28;;;;;;;18.00;10.27;;;14.50;87.50;;;;;;5092866;28;20096;-71
2022/06/07 02:47:53;;;;;;;17.73;10.35;;;14.50;87.30;;;;;;5093088;28;20027;-70
2022/06/07 02:50:19;;;;;;;20.17;10.50;;;14.50;88.10;;;;;;5092875;28;20041;-70
2022/06/07 02:52:45;;;;;;;17.35;10.95;;;14.50;87.00;;;;;;5092876;28;20025;-70
2022/06/07 02:55:11;;;;;;;19.55;10.68;;;14.50;87.00;;;;;;5092836;28;20021;-71
2022/06/07 02:57:36;;;;;;;16.90;10.25;;;14.50;86.90;;;;;;5092549;28;20049;-71
2022/06/07 03:00:05;;;;;;;16.23;9.82;;;14.50;86.80;;;;;;5092824;28;20025;-70
2022/06/07 03:02:31;;;;;;;16.10;9.50;;;14.40;86.70;;;;;;5092781;28;20025;-70
2022/06/07 03:04:57;;;;;;;16.75;9.50;;;14.50;86.70;;;;;;5092795;28;20028;-70
2022/06/07 03:07:22;;;;;;;19.80;10.18;;;14.50;86.50;;;;;;5092748;28;20037;-70
2022/06/07 03:09:48;;;;;;;14.25;9.38;;;14.40;86.70;;;;;;5092837;28;20040;-70
2022/06/07 03:12:14;;;;;;;16.05;9.30;;;14.30;86.40;;;;;;5092668;28;20051;-70
2022/06/07 03:14:39;;;;;;;16.85;9.27;;;14.30;86.50;;;;;;5092601;28;20036;-70
2022/06/07 03:17:06;;;;;;;16.45;9.52;;;14.30;86.00;;;;;;5091634;28;20016;-70
2022/06/07 03:19:32;;;;;;;18.40;9.63;;;14.30;86.40;;;;;;5092636;28;20024;-70
2022/06/07 03:21:58;;;;;;;16.65;8.57;;;14.30;86.20;;;;;;5095587;28;20032;-71
2022/06/07 03:24:26;;;;;;;17.08;9.05;;;14.30;86.40;;;;;;5096236;28;20016;-71
2022/06/07 03:26:52;;;;;;;14.98;8.65;;;14.30;86.10;;;;;;5096256;28;20027;-70
2022/06/07 03:29:18;;;;;;;14.57;8.57;;;14.30;85.90;;;;;;5096118;28;20052;-70
2022/06/07 03:31:44;;;;;;;13.73;8.27;;;14.30;86.00;;;;;;5096153;28;20032;-70
2022/06/07 03:34:09;;;;;;;13.90;8.52;;;14.40;85.90;;;;;;5095982;28;20025;-71
2022/06/07 03:36:35;;;;;;;12.20;8.27;;;14.40;85.60;;;;;;5096073;28;20033;-70
2022/06/07 03:39:03;;;;;;;14.95;8.27;;;14.30;85.40;;;;;;5096001;28;20055;-70
2022/06/07 03:41:29;;;;;;;11.57;8.05;;;14.30;85.50;;;;;;5095984;28;20027;-71
2022/06/07 03:43:56;;;;;;;14.45;9.40;;;14.30;85.50;;;;;;5094927;28;20025;-70
2022/06/07 03:46:25;;;;;;;12.85;7.70;;;14.30;85.50;;;;;;5095907;28;20021;-70
2022/06/07 03:48:52;;;;;;;16.05;7.82;;;14.20;85.40;;;;;;5095808;28;20028;-70
2022/06/07 03:51:20;;;;;;;16.92;7.97;;;14.20;85.50;;;;;;5095780;28;20028;-70
2022/06/07 03:53:46;;;;;;;13.38;7.47;;;14.30;85.50;;;;;;5095731;28;20094;-70
2022/06/07 03:56:13;;;;;;;13.40;8.15;;;14.30;85.30;;;;;;5095606;28;20028;-71
2022/06/07 03:58:39;;;;;;;11.88;8.32;;;14.30;85.10;;;;;;5095474;28;20040;-71
2022/06/07 04:01:07;;;;;;;12.07;7.53;;;14.30;85.00;;;;;;5095614;28;20025;-71
2022/06/07 04:03:32;;;;;;;11.88;7.53;;;14.40;85.00;;;;;;5095546;28;20020;-71
2022/06/07 04:05:59;;;;;;;11.82;7.20;;;14.30;84.70;;;;;;5095535;28;20017;-71
2022/06/07 04:08:25;;;;;;;13.20;6.75;;;14.30;84.70;;;;;;5095489;28;20025;-70
2022/06/07 04:10:55;;;;;;;12.98;6.78;;;14.30;84.70;;;;;;5095397;28;20028;-71
2022/06/07 04:13:25;;;;;;;14.00;7.30;;;14.30;84.50;;;;;;5095341;28;20052;-71
2022/06/07 04:15:51;;;;;;;9.77;7.03;;;14.40;84.70;;;;;;5095430;28;20059;-71
2022/06/07 04:18:17;;;;;;;13.90;6.97;;;14.30;84.70;;;;;;5095270;28;20029;-70
2022/06/07 04:20:43;;;;;;;13.00;6.95;;;14.30;85.20;;;;;;5095218;28;20029;-71
2022/06/07 04:23:14;;;;;;;12.88;6.97;;;14.30;84.70;;;;;;5095289;28;20055;-71
2022/06/07 04:25:41;;;;;;;9.93;6.35;;;14.30;84.70;;;;;;5095290;28;20027;-70
2022/06/07 04:28:07;;;;;;;14.32;6.72;;;14.20;85.00;;;;;;5095159;28;20031;-70
2022/06/07 04:30:33;;;;;;;11.68;6.68;;;14.20;85.10;;;;;;5095030;28;20047;-70
2022/06/07 04:32:59;;;;;;;11.13;6.90;;;14.20;85.20;;;;;;5093798;28;20088;-70
2022/06/07 04:35:24;;;;;;;14.27;7.82;;;14.20;85.40;;;;;;5094850;28;20025;-70
2022/06/07 04:37:50;;;;;;;12.68;7.38;;;14.20;85.40;;;;;;5094870;28;20025;-71
2022/06/07 04:40:16;;;;;;;12.10;6.88;;;14.20;85.50;;;;;;5094816;28;20042;-70
2022/06/07 04:42:43;;;;;;;11.45;6.95;;;14.20;85.60;;;;;;5094772;28;20048;-71
2022/06/07 04:45:14;;;;;;;10.68;6.93;;;14.20;85.40;;;;;;5094724;28;20075;-71
2022/06/07 04:47:40;;;;;;;12.02;7.10;;;14.20;85.30;;;;;;5094725;28;20035;-71
2022/06/07 04:50:07;;;;;;;12.82;7.00;;;14.20;85.00;;;;;;5094617;28;20476;-71
2022/06/07 04:52:33;;;;;;;12.65;7.10;;;14.30;85.30;;;;;;5094609;28;20080;-71
2022/06/07 04:54:58;;;;;;;11.10;7.30;;;14.30;85.10;;;;;;5094455;28;20379;-71
2022/06/07 04:57:24;;;;;;;11.55;7.05;;;14.30;85.20;;;;;;5094454;28;20077;-71
2022/06/07 04:59:49;;;;;;;12.02;7.03;;;14.30;85.00;;;;;;5094460;28;20025;-71
2022/06/07 05:02:15;;;;;;;13.65;7.50;;;14.20;85.40;;;;;;5094390;28;20032;-71
2022/06/07 05:04:41;;;;;;;13.88;7.38;;;14.20;85.40;;;;;;5093394;28;20044;-71
2022/06/07 05:07:06;;;;;;;12.05;7.40;;;14.20;85.40;;;;;;5094275;28;20043;-71
2022/06/07 05:09:32;;;;;;;17.08;8.43;;;14.30;85.60;;;;;;5094286;28;20032;-71
2022/06/07 05:11:58;;;;;;;13.02;7.90;;;14.30;85.60;;;;;;5094305;28;20025;-71
2022/06/07 05:14:24;;;;;;;13.20;8.02;;;14.30;85.60;;;;;;5093998;28;20086;-71
2022/06/07 05:16:51;;;;;;;15.27;8.32;;;14.30;85.70;;;;;;5094094;28;20032;-71
2022/06/07 05:19:18;;;;;;;14.82;7.95;;;14.20;85.70;;;;;;5094047;28;20024;-70
2022/06/07 05:21:44;;;;;;;15.85;8.30;;;14.20;85.70;;;;;;5093965;28;20021;-71
2022/06/07 05:24:10;;;;;;;18.17;8.63;;;14.20;86.00;;;;;;5093946;28;20024;-70
2022/06/07 05:26:56;;;;;;;14.15;8.88;;;14.30;85.90;;;;;;5093895;28;20017;-70
2022/06/07 05:29:40;;;;;;;16.88;8.80;;;14.30;85.90;;;;;;5093822;28;20021;-71
2022/06/07 05:32:06;;;;;;;18.13;8.52;;;14.30;85.50;;;;;;5093862;28;20023;-71
2022/06/07 05:34:32;;;;;;;15.07;9.00;;;14.30;85.50;;;;;;5093793;28;20475;-71
2022/06/07 05:36:57;;;;;;;17.77;9.20;;;14.40;85.80;;;;;;5093705;28;20028;-71
2022/06/07 05:39:28;;;;;;;17.77;9.63;;;14.40;85.80;;;;;;5093716;28;20028;-71
2022/06/07 05:41:54;;;;;;;21.77;10.85;;;14.40;86.10;;;;;;5093668;28;20016;-71
2022/06/07 05:44:21;;;;;;;18.95;9.63;;;14.50;86.00;;;;;;5093335;28;20031;-71
2022/06/07 05:46:48;;;;;;;17.50;9.98;;;14.50;86.40;;;;;;5093579;28;20016;-70
2022/06/07 05:49:14;;;;;;;17.33;9.68;;;14.50;85.70;;;;;;5093550;28;20021;-71
2022/06/07 05:51:40;;;;;;;15.93;9.38;;;14.60;86.40;;;;;;5093493;28;20020;-71
2022/06/07 05:54:06;;;;;;;16.20;9.10;;;14.60;85.60;;;;;;5093480;28;20032;-69
2022/06/07 05:56:33;;;;;;;14.70;9.27;;;14.50;85.40;;;;;;5093362;28;20039;-68
2022/06/07 05:59:00;;;;;;;17.02;9.73;;;14.60;86.30;;;;;;5093308;28;20041;-69
2022/06/07 06:01:26;;;;;;;21.02;9.70;;;14.60;85.90;;;;;;5092341;28;20020;-70
2022/06/07 06:03:55;;;;;;;18.08;9.23;;;14.60;85.80;;;;;;5093364;28;20027;-68
2022/06/07 06:06:21;;;;;;;18.55;10.02;;;14.70;85.80;;;;;;5093437;28;20038;-68
2022/06/07 06:11:32;;;;;;;17.35;9.88;;;14.80;85.80;;;;;;5093405;28;20058;-68
2022/06/07 06:13:58;;;;;;;21.23;10.45;;;14.80;85.70;;;;;;5093126;28;20036;-68
2022/06/07 06:16:25;;;;;;;17.90;10.63;;;14.80;85.80;;;;;;5093126;28;20037;-68
2022/06/07 06:18:53;;;;;;;18.35;10.48;;;14.90;85.60;;;;;;5093205;28;20041;-68
2022/06/07 06:21:21;;;;;;;21.25;10.60;;;14.80;85.10;;;;;;5093158;28;20028;-68
2022/06/07 06:23:47;;;;;;;20.95;10.80;;;14.80;85.50;;;;;;5093148;28;20028;-68
2022/06/07 06:26:14;;;;;;;16.65;10.85;;;14.80;86.10;;;;;;5093115;28;20026;-68
2022/06/07 06:28:41;;;;;;;23.63;11.50;;;14.80;86.80;;;;;;5092975;28;20020;-68
2022/06/07 06:31:09;;;;;;;23.25;11.32;;;14.90;85.80;;;;;;5093109;28;20024;-68
2022/06/07 06:33:44;;;;;;;22.08;11.68;;;14.90;85.70;;;;;;5093123;28;20047;-68
2022/06/07 06:36:11;;;;;;;22.38;11.05;;;14.90;85.70;;;;;;5092970;28;20036;-68
2022/06/07 06:38:37;;;;;;;24.15;12.25;;;15.00;86.20;;;;;;5093003;28;20020;-68
2022/06/07 06:41:33;;;;;;;20.77;11.82;;;15.00;86.00;;;;;;5092951;28;20081;-68
2022/06/07 06:44:01;;;;;;;28.60;12.40;;;15.10;86.60;;;;;;5080087;28;20032;-68
2022/06/07 06:46:34;;;;;;;25.35;12.88;;;15.20;86.40;;;;;;5092937;28;20471;-68
2022/06/07 06:48:59;;;;;;;24.92;13.15;;;15.20;86.20;;;;;;5093061;28;20020;-68
2022/06/07 06:51:27;;;;;;;26.50;13.43;;;15.30;86.30;;;;;;5092875;28;20068;-68
2022/06/07 06:53:56;;;;;;;24.13;12.85;;;15.30;85.40;;;;;;5092879;28;20036;-68
2022/06/07 06:56:24;;;;;;;23.73;13.45;;;15.20;84.90;;;;;;5094944;28;20033;-68
2022/06/07 06:58:51;;;;;;;30.83;14.20;;;15.30;85.90;;;;;;5096673;28;20115;-68
2022/06/07 07:01:21;;;;;;;27.63;13.82;;;15.30;85.20;;;;;;5096709;28;20031;-68
2022/06/07 07:03:47;;;;;;;23.10;13.43;;;15.40;86.10;;;;;;5096732;28;20020;-68
2022/06/07 07:06:14;;;;;;;25.52;13.43;;;15.50;86.20;;;;;;5096567;28;20029;-68
2022/06/07 07:08:42;;;;;;;25.98;14.85;;;15.60;86.00;;;;;;5096620;28;20038;-68
2022/06/07 07:11:13;;;;;;;24.85;13.73;;;15.60;85.90;;;;;;5096544;28;20035;-69
2022/06/07 07:13:40;;;;;;;28.23;14.07;;;15.60;86.10;;;;;;5096666;28;20047;-69
2022/06/07 07:16:11;;;;;;;30.85;14.68;;;15.70;86.00;;;;;;5096332;28;20028;-68
2022/06/07 07:18:37;;;;;;;29.27;15.43;;;15.80;85.80;;;;;;5096453;28;20051;-68
2022/06/07 07:21:06;;;;;;;25.15;13.13;;;15.90;85.20;;;;;;5096108;28;20111;-69
2022/06/07 07:23:33;;;;;;;29.25;14.80;;;16.00;84.70;;;;;;5096189;28;20025;-68
2022/06/07 07:26:07;;;;;;;32.85;16.33;;;16.10;84.30;;;;;;5096185;28;20031;-69
2022/06/07 07:28:38;;;;;;;27.90;14.93;;;16.20;86.90;;;;;;5096035;28;20026;-68
2022/06/07 07:31:06;;;;;;;25.67;14.90;;;16.30;83.70;;;;;;5096186;28;20028;-68
2022/06/07 07:33:33;;;;;;;26.95;14.13;;;16.40;84.40;;;;;;5096056;28;20040;-68
2022/06/07 07:36:04;;;;;;;26.67;15.13;;;16.40;83.20;;;;;;5095999;28;20047;-68
2022/06/07 07:38:30;;;;;;;26.83;15.02;;;16.40;83.90;;;;;;5095993;28;20028;-68
2022/06/07 07:40:55;;;;;;;26.23;15.45;;;16.40;83.80;;;;;;5095959;28;20036;-68
2022/06/07 07:43:21;;;;;;;27.02;16.10;;;16.50;83.00;;;;;;5095869;28;20039;-68
2022/06/07 07:45:54;;;;;;;26.90;16.30;;;16.50;83.40;;;;;;5095895;28;20063;-68
2022/06/07 07:48:21;;;;;;;28.08;16.75;;;16.50;83.60;;;;;;5095854;28;20048;-68
2022/06/07 07:50:47;;;;;;;28.08;15.45;;;16.50;83.10;;;;;;5095788;28;20024;-68
2022/06/07 07:53:13;;;;;;;26.63;15.45;;;16.50;83.40;;;;;;5095739;28;20024;-68
2022/06/07 07:55:44;;;;;;;29.88;16.48;;;16.50;83.40;;;;;;5095642;28;20429;-68
2022/06/07 07:58:09;;;;;;;27.33;16.83;;;16.60;83.70;;;;;;5095508;28;20158;-68
2022/06/07 08:00:35;;;;;;;29.08;17.27;;;16.60;83.60;;;;;;5095609;28;20021;-68
2022/06/07 08:03:01;;;;;;;28.63;17.20;;;16.60;83.10;;;;;;5094538;28;20017;-68
2022/06/07 08:05:26;;;;;;;26.92;17.15;;;16.60;82.60;;;;;;5095468;28;20033;-68
2022/06/07 08:07:52;;;;;;;29.20;17.67;;;16.60;82.10;;;;;;5095165;28;20061;-68
2022/06/07 08:10:18;;;;;;;33.00;17.92;;;16.60;83.00;;;;;;5095432;28;20043;-68
2022/06/07 08:12:44;;;;;;;30.88;18.10;;;16.60;82.60;;;;;;5095386;28;20100;-68
2022/06/07 08:15:11;;;;;;;27.70;16.58;;;16.60;83.10;;;;;;5095213;28;20112;-68
2022/06/07 08:17:36;;;;;;;30.20;17.67;;;16.60;82.40;;;;;;5095270;28;20107;-68
2022/06/07 08:20:02;;;;;;;33.65;18.55;;;16.60;82.20;;;;;;5095220;28;20020;-68
2022/06/07 08:22:29;;;;;;;33.75;18.05;;;16.70;82.60;;;;;;5095253;28;20024;-69
2022/06/07 08:24:54;;;;;;;29.27;18.58;;;16.70;82.40;;;;;;5095166;28;20021;-68
2022/06/07 08:27:20;;;;;;;30.40;18.20;;;16.80;82.70;;;;;;5095205;28;20032;-68
2022/06/07 08:29:46;;;;;;;33.05;18.75;;;16.80;81.80;;;;;;5094977;28;20020;-68
2022/06/07 08:32:11;;;;;;;33.50;19.42;;;16.80;81.50;;;;;;5094976;28;20060;-68
2022/06/07 08:37:33;;;;;;;35.05;19.08;;;16.80;81.20;;;;;;5095108;28;20044;-68
2022/06/07 08:40:01;;;;;;;28.63;18.50;;;16.90;81.10;;;;;;5094895;28;20020;-68
2022/06/07 08:42:34;;;;;;;32.45;19.35;;;16.90;81.40;;;;;;5094799;28;20047;-68
2022/06/07 08:45:02;;;;;;;28.75;18.80;;;17.00;80.50;;;;;;5094832;28;20063;-68
2022/06/07 08:47:41;;;;;;;30.55;19.15;;;17.10;81.50;;;;;;5094706;28;20031;-68
2022/06/07 08:50:19;;;;;;;34.05;19.73;;;17.10;81.00;;;;;;5094673;28;20024;-68
2022/06/07 08:52:46;;;;;;;32.35;20.05;;;17.10;81.30;;;;;;5094611;28;20020;-68
2022/06/07 08:55:16;;;;;;;30.67;19.52;;;17.20;81.30;;;;;;5094406;28;20028;-68
2022/06/07 08:57:48;;;;;;;33.58;19.77;;;17.30;79.70;;;;;;5094338;28;20052;-68
2022/06/07 09:00:19;;;;;;;36.80;21.47;;;17.40;79.30;;;;;;5094477;28;20028;-68
2022/06/07 09:02:45;;;;;;;31.75;20.40;;;17.50;78.80;;;;;;5094372;28;20020;-68
2022/06/07 09:05:16;;;;;;;30.33;18.48;;;17.40;78.70;;;;;;5094373;28;20024;-68
2022/06/07 09:07:43;;;;;;;27.05;16.98;;;17.50;76.80;;;;;;5094331;28;20475;-68
2022/06/07 09:13:00;;;;;;;29.23;19.17;;;17.40;77.00;;;;;;5094440;28;20032;-68
2022/06/07 09:15:30;;;;;;;27.50;17.83;;;17.50;77.90;;;;;;5093992;28;20077;-68
2022/06/07 09:17:58;;;;;;;28.30;18.25;;;17.50;77.30;;;;;;5093506;28;20031;-68
2022/06/07 09:20:48;;;;;;;28.55;19.65;;;17.50;77.40;;;;;;5094033;28;20025;-68
2022/06/07 09:23:34;;;;;;;28.15;19.60;;;17.60;78.20;;;;;;5094016;28;20025;-68
2022/06/07 09:26:15;;;;;;;27.58;19.55;;;17.70;76.50;;;;;;5093958;28;20115;-68
2022/06/07 09:28:44;;;;;;;30.38;20.98;;;17.60;75.10;;;;;;5093817;28;20080;-68
2022/06/07 09:31:13;;;;;;;28.38;20.27;;;17.70;76.00;;;;;;5092913;28;20044;-68
2022/06/07 09:33:55;;;;;;;27.88;20.40;;;17.70;76.70;;;;;;5093801;28;20025;-68
2022/06/07 09:36:38;;;;;;;30.37;20.77;;;17.90;76.30;;;;;;5093959;28;20031;-68
2022/06/07 09:39:24;;;;;;;28.98;21.65;;;17.90;76.70;;;;;;5093728;28;20259;-68
2022/06/07 09:41:54;;;;;;;27.13;19.77;;;18.10;76.80;;;;;;5093704;28;20052;-68
2022/06/07 09:44:30;;;;;;;31.80;21.52;;;18.10;75.80;;;;;;5093743;28;20038;-68
2022/06/07 09:47:10;;;;;;;28.98;20.92;;;18.20;76.50;;;;;;5093685;28;20080;-68
2022/06/07 09:49:45;;;;;;;28.20;20.08;;;18.20;74.50;;;;;;5093573;28;20022;-69
2022/06/07 09:52:25;;;;;;;23.15;17.42;;;18.30;74.20;;;;;;5093535;28;20114;-74
2022/06/07 09:54:59;;;;;;;23.63;17.30;;;18.30;72.80;;;;;;5093397;28;20524;-68
2022/06/07 09:57:42;;;;;;;18.92;15.07;;;18.40;73.70;;;;;;5093466;28;20021;-68
2022/06/07 10:00:48;;;;;;;21.42;16.80;;;18.40;72.00;;;;;;5093469;28;20020;-68
2022/06/07 10:03:55;;;;;;;22.77;16.08;;;18.50;72.00;;;;;;5092370;28;20044;-68
2022/06/07 10:06:29;;;;;;;22.80;16.25;;;18.50;72.50;;;;;;5031580;28;20030;-68
2022/06/07 10:09:04;;;;;;;26.08;18.90;;;18.60;73.80;;;;;;5084192;28;20033;-68
2022/06/07 10:12:01;;;;;;;26.83;19.00;;;18.80;73.20;;;;;;5093377;28;20185;-68
2022/06/07 10:14:54;;;;;;;21.40;16.30;;;19.00;72.00;;;;;;5093249;28;20491;-68
2022/06/07 10:17:38;;;;;;;25.52;19.45;;;19.00;68.60;;;;;;5093381;28;20029;-68
2022/06/07 10:20:22;;;;;;;26.30;19.42;;;19.10;71.70;;;;;;5093363;28;20016;-68
2022/06/07 10:23:02;;;;;;;23.67;18.95;;;19.30;71.40;;;;;;5093239;28;20024;-67
2022/06/07 10:25:54;;;;;;;24.90;18.20;;;19.30;70.00;;;;;;5093206;28;20025;-68
2022/06/07 10:28:33;;;;;;;23.15;18.65;;;19.50;70.40;;;;;;5064587;28;20041;-68
2022/06/07 10:31:30;;;;;;;23.63;16.20;;;19.60;70.10;;;;;;5096552;28;20025;-68
2022/06/07 10:34:01;;;;;;;24.38;18.85;;;19.60;67.40;;;;;;5097314;28;20031;-68
2022/06/07 10:36:48;;;;;;;25.83;19.67;;;19.60;69.50;;;;;;5097212;28;20077;-68
2022/06/07 10:39:32;;;;;;;21.38;18.05;;;19.80;70.50;;;;;;5097319;28;20050;-68
2022/06/07 10:42:34;;;;;;;21.55;17.17;;;20.00;69.30;;;;;;5097294;28;20013;-68
2022/06/07 10:45:19;;;;;;;22.92;18.02;;;20.10;69.60;;;;;;5097134;28;20028;-68
2022/06/07 10:48:01;;;;;;;21.10;16.98;;;20.20;67.70;;;;;;5097168;28;20075;-68
2022/06/07 10:50:32;;;;;;;24.08;18.75;;;20.20;67.80;;;;;;5096983;28;20028;-68
2022/06/07 10:53:12;;;;;;;24.77;18.23;;;20.40;67.80;;;;;;5096965;28;20028;-68
2022/06/07 10:56:10;;;;;;;22.17;16.42;;;20.40;65.70;;;;;;5096826;28;20463;-68
2022/06/07 10:58:40;;;;;;;17.77;15.77;;;20.50;63.60;;;;;;5095999;28;20041;-68
2022/06/07 11:01:20;;;;;;;20.65;17.63;;;20.40;64.90;;;;;;5096833;28;20031;-68
2022/06/07 11:04:01;;;;;;;18.90;16.25;;;20.50;65.30;;;;;;5096886;28;20039;-68
2022/06/07 11:09:47;;;;;;;17.98;16.05;;;20.40;63.40;;;;;;5096757;28;20035;-68
2022/06/07 11:12:26;;;;;;;18.08;15.73;;;20.40;65.60;;;;;;5096573;28;20044;-68
2022/06/07 11:14:54;;;;;;;19.33;16.98;;;20.60;66.00;;;;;;5096419;28;20029;-68
2022/06/07 11:17:32;;;;;;;19.48;15.18;;;20.50;64.40;;;;;;5096376;28;20024;-68
2022/06/07 11:20:12;;;;;;;20.48;16.70;;;20.60;64.30;;;;;;5096318;28;20020;-68
2022/06/07 11:23:02;;;;;;;21.88;17.65;;;20.50;64.20;;;;;;5096386;28;20020;-68
2022/06/07 11:25:36;;;;;;;19.08;17.10;;;20.40;63.30;;;;;;5096446;28;20076;-68
2022/06/07 11:28:25;;;;;;;21.05;17.25;;;20.20;64.80;;;;;;5096269;28;20020;-68
2022/06/07 11:30:53;;;;;;;20.08;16.73;;;20.30;66.10;;;;;;5095163;28;20056;-68
2022/06/07 11:33:57;;;;;;;18.50;16.52;;;20.10;64.10;;;;;;5096158;28;20051;-69
2022/06/07 11:36:28;;;;;;;18.85;16.23;;;20.10;64.80;;;;;;5096019;28;20032;-68
2022/06/07 11:38:57;;;;;;;17.63;15.73;;;20.20;66.70;;;;;;5096089;28;20039;-68
2022/06/07 11:41:37;;;;;;;20.77;17.23;;;20.40;65.10;;;;;;5095266;28;20047;-68
2022/06/07 11:44:10;;;;;;;17.60;15.73;;;20.40;64.10;;;;;;5096100;28;20044;-69
2022/06/07 11:46:35;;;;;;;17.10;15.25;;;20.20;63.60;;;;;;5095921;28;20080;-67
2022/06/07 11:49:19;;;;;;;18.73;16.52;;;20.20;63.80;;;;;;5095842;28;20131;-68
2022/06/07 11:52:13;;;;;;;17.98;15.90;;;20.20;64.30;;;;;;5095814;28;20025;-68
2022/06/07 11:54:38;;;;;;;19.50;15.82;;;20.10;64.60;;;;;;5095767;28;20046;-68
2022/06/07 11:57:28;;;;;;;18.35;15.68;;;20.00;64.60;;;;;;5095656;28;20021;-68
2022/06/07 11:59:57;;;;;;;14.68;12.27;;;20.00;64.60;;;;;;5095700;28;20090;-68
2022/06/07 12:02:25;;;;;;;18.73;13.85;;;19.90;62.50;;;;;;5095603;28;20045;-68
2022/06/07 12:05:16;;;;;;;15.18;13.38;;;19.90;63.80;;;;;;5095491;28;20055;-68
2022/06/07 12:07:46;;;;;;;13.32;11.75;;;20.00;63.70;;;;;;5072049;28;20044;-68
2022/06/07 12:10:18;;;;;;;16.10;12.30;;;19.90;62.40;;;;;;5095577;28;20024;-68
2022/06/07 12:13:06;;;;;;;14.60;13.10;;;19.80;63.60;;;;;;5095406;28;20403;-68
2022/06/07 12:15:43;;;;;;;15.13;12.20;;;19.80;63.40;;;;;;5095292;28;20024;-68
2022/06/07 12:18:35;;;;;;;15.90;11.98;;;19.80;64.60;;;;;;5095369;28;20016;-68
2022/06/07 12:21:15;;;;;;;12.77;10.53;;;19.80;64.50;;;;;;5092333;28;20560;-68
2022/06/07 12:23:47;;;;;;;27.05;9.63;;;19.80;64.90;;;;;;5095181;28;20286;-68
2022/06/07 12:26:34;;;;;;;10.45;7.40;;;19.70;65.30;;;;;;5094176;28;20540;-68
2022/06/07 12:29:19;;;;;;;9.05;7.47;;;19.80;63.70;;;;;;5095186;28;20028;-68
2022/06/07 12:31:53;;;;;;;8.93;7.22;;;19.90;63.00;;;;;;5084585;28;20048;-68
2022/06/07 12:34:23;;;;;;;9.43;7.25;;;19.90;62.20;;;;;;5095016;28;20103;-68
2022/06/07 12:36:58;;;;;;;10.63;7.00;;;20.10;63.60;;;;;;5094812;28;20029;-68
2022/06/07 12:39:24;;;;;;;8.73;7.18;;;20.30;63.60;;;;;;5094909;28;20024;-68
2022/06/07 12:41:57;;;;;;;7.95;6.85;;;20.50;63.00;;;;;;5094814;28;20025;-68
2022/06/07 12:44:32;;;;;;;10.88;8.60;;;20.70;62.50;;;;;;5094921;28;20055;-68
2022/06/07 12:47:01;;;;;;;8.52;7.63;;;20.90;58.90;;;;;;5094774;28;20083;-68
2022/06/07 12:49:39;;;;;;;9.68;7.80;;;20.80;59.30;;;;;;5094694;28;20052;-68
2022/06/07 12:52:06;;;;;;;8.98;7.28;;;20.90;59.10;;;;;;5094616;28;20024;-68
2022/06/07 12:54:33;;;;;;;9.77;7.70;;;21.10;61.50;;;;;;5093427;28;20032;-68
2022/06/07 12:57:04;;;;;;;9.00;7.38;;;21.10;59.80;;;;;;5094509;28;20012;-68
2022/06/07 12:59:54;;;;;;;7.70;6.07;;;21.10;60.10;;;;;;5094359;28;20166;-68
2022/06/07 13:02:51;;;;;;;8.65;6.00;;;21.10;59.90;;;;;;5094440;28;20028;-68
2022/06/07 13:05:28;;;;;;;7.78;6.30;;;21.00;59.70;;;;;;5093675;28;20032;-68
2022/06/07 13:07:57;;;;;;;7.15;6.10;;;21.00;61.20;;;;;;5094308;28;20025;-68